createdAt,value
2023-02-11T00:01:36.778Z,99402.72
2023-02-11T00:04:06.604Z,99384.00
2023-02-11T00:06:35.469Z,99402.13
2023-02-11T00:09:02.928Z,99399.47
2023-02-11T00:11:31.184Z,99373.41
2023-02-11T00:14:06.914Z,99388.88
2023-02-11T00:16:44.244Z,99390.44
2023-02-11T00:19:11.260Z,99341.59
2023-02-11T00:21:38.278Z,99378.88
2023-02-11T00:24:05.932Z,99383.31
2023-02-11T00:26:40.272Z,99386.38
2023-02-11T00:29:07.425Z,99352.22
2023-02-11T00:31:35.139Z,99395.94
2023-02-11T00:34:02.910Z,99400.25
2023-02-11T00:36:31.135Z,99392.28
2023-02-11T00:38:59.232Z,99389.78
2023-02-11T00:41:26.794Z,99395.00
2023-02-11T00:43:54.287Z,99367.81
2023-02-11T00:46:22.262Z,99395.81
2023-02-11T00:48:52.446Z,99425.78
2023-02-11T00:51:23.629Z,99341.31
2023-02-11T00:53:52.015Z,99399.66
2023-02-11T00:56:19.244Z,99344.69
2023-02-11T00:58:46.579Z,99391.25
2023-02-11T01:01:22.555Z,99391.09
2023-02-11T01:03:51.322Z,99403.31
2023-02-11T01:06:18.807Z,99321.63
2023-02-11T01:08:46.000Z,99411.88
2023-02-11T01:11:20.131Z,99420.44
2023-02-11T01:13:50.075Z,99395.19
2023-02-11T01:16:20.483Z,99382.03
2023-02-11T01:18:50.902Z,99422.53
2023-02-11T01:21:21.802Z,99414.78
2023-02-11T01:23:51.790Z,99428.38
2023-02-11T01:26:20.419Z,99431.72
2023-02-11T01:28:49.203Z,99411.63
2023-02-11T01:31:17.233Z,99424.66
2023-02-11T01:33:52.077Z,99419.19
2023-02-11T01:36:31.821Z,99420.66
2023-02-11T01:39:13.120Z,99428.63
2023-02-11T01:41:47.593Z,99425.81
2023-02-11T01:44:34.913Z,99405.31
2023-02-11T01:47:05.306Z,99418.59
2023-02-11T01:49:44.586Z,99435.03
2023-02-11T01:52:24.339Z,99439.19
2023-02-11T01:55:14.398Z,99429.53
2023-02-11T01:57:46.545Z,99426.75
2023-02-11T02:00:56.536Z,99442.41
2023-02-11T02:03:30.173Z,99432.13
2023-02-11T02:06:14.724Z,99419.41
2023-02-11T02:09:06.916Z,99441.56
2023-02-11T02:11:37.394Z,99442.97
2023-02-11T02:14:04.891Z,99419.41
2023-02-11T02:16:35.169Z,99449.19
2023-02-11T02:19:05.324Z,99439.09
2023-02-11T02:21:50.798Z,99430.66
2023-02-11T02:24:44.348Z,99416.75
2023-02-11T02:27:42.809Z,99442.41
2023-02-11T02:30:29.766Z,99440.63
2023-02-11T02:33:24.861Z,99434.81
2023-02-11T02:36:10.825Z,99436.75
2023-02-11T02:39:07.253Z,99431.59
2023-02-11T02:41:37.303Z,99435.13
2023-02-11T02:44:05.002Z,99437.03
2023-02-11T02:46:34.098Z,99428.94
2023-02-11T02:49:01.694Z,99443.38
2023-02-11T02:51:41.846Z,99440.16
2023-02-11T02:54:37.434Z,99429.09
2023-02-11T02:57:12.787Z,99397.13
2023-02-11T03:00:04.473Z,99433.88
2023-02-11T03:02:39.637Z,99435.72
2023-02-11T03:05:08.769Z,99431.47
2023-02-11T03:07:54.268Z,99433.25
2023-02-11T03:10:30.227Z,99437.50
2023-02-11T03:12:58.238Z,99422.47
2023-02-11T03:15:28.275Z,99421.75
2023-02-11T03:18:01.280Z,99425.09
2023-02-11T03:20:37.837Z,99424.41
2023-02-11T03:23:29.918Z,99436.03
2023-02-11T03:26:02.726Z,99378.72
2023-02-11T03:28:40.193Z,99442.81
2023-02-11T03:31:33.377Z,99425.72
2023-02-11T03:34:24.364Z,99429.09
2023-02-11T03:37:09.817Z,99422.03
2023-02-11T03:39:52.138Z,99406.47
2023-02-11T03:42:36.412Z,99399.03
2023-02-11T03:45:11.232Z,99372.66
2023-02-11T03:47:56.738Z,99407.47
2023-02-11T03:50:31.453Z,99404.81
2023-02-11T03:53:02.154Z,99393.88
2023-02-11T03:55:31.685Z,99418.50
2023-02-11T04:01:21.990Z,99410.63
2023-02-11T04:03:50.749Z,99402.72
2023-02-11T04:06:24.365Z,99400.81
2023-02-11T04:08:52.998Z,99407.66
2023-02-11T04:11:31.377Z,99397.28
2023-02-11T04:14:17.087Z,99400.66
2023-02-11T04:16:44.458Z,99406.25
2023-02-11T04:19:11.415Z,99360.91
2023-02-11T04:21:38.617Z,99364.97
2023-02-11T04:24:05.914Z,99404.59
2023-02-11T04:26:33.543Z,99373.50
2023-02-11T04:29:00.744Z,99364.09
2023-02-11T04:31:27.761Z,99392.91
2023-02-11T04:33:54.851Z,99400.94
2023-02-11T04:36:21.973Z,99406.72
2023-02-11T04:38:48.981Z,99399.66
2023-02-11T04:41:16.288Z,99349.88
2023-02-11T04:43:43.500Z,99396.84
2023-02-11T04:46:10.656Z,99402.72
2023-02-11T04:48:37.623Z,99394.38
2023-02-11T04:51:04.744Z,99402.22
2023-02-11T04:53:33.850Z,99402.09
2023-02-11T04:56:01.017Z,99408.34
2023-02-11T04:58:28.120Z,99408.34
2023-02-11T05:01:12.609Z,99421.03
2023-02-11T05:03:39.889Z,99415.50
2023-02-11T05:06:07.308Z,99401.75
2023-02-11T05:08:35.808Z,99373.03
2023-02-11T05:11:03.048Z,99394.97
2023-02-11T05:13:30.924Z,99404.25
2023-02-11T05:15:58.399Z,99388.06
2023-02-11T05:18:25.411Z,99363.63
2023-02-11T05:20:52.434Z,99395.47
2023-02-11T05:23:19.516Z,99395.63
2023-02-11T05:25:46.518Z,99393.69
2023-02-11T05:28:13.828Z,99396.75
2023-02-11T05:30:40.958Z,99373.84
2023-02-11T05:33:08.411Z,99360.22
2023-02-11T05:35:35.647Z,99350.75
2023-02-11T05:38:02.728Z,99389.94
2023-02-11T05:40:29.864Z,99395.66
2023-02-11T05:42:57.072Z,99407.38
2023-02-11T05:45:24.346Z,99392.81
2023-02-11T05:47:51.335Z,99413.06
2023-02-11T05:50:18.545Z,99411.47
2023-02-11T05:52:45.603Z,99392.44
2023-02-11T05:55:12.963Z,99394.66
2023-02-11T05:57:40.009Z,99406.41
2023-02-11T06:00:07.440Z,99409.47
2023-02-11T06:02:40.293Z,99417.19
2023-02-11T06:05:07.958Z,99389.34
2023-02-11T06:07:34.854Z,99401.56
2023-02-11T06:10:02.191Z,99384.03
2023-02-11T06:12:30.326Z,99396.13
2023-02-11T06:14:57.330Z,99412.34
2023-02-11T06:17:25.441Z,99408.94
2023-02-11T06:19:52.393Z,99418.38
2023-02-11T06:22:19.388Z,99413.97
2023-02-11T06:25:00.793Z,99376.00
2023-02-11T06:27:30.679Z,99368.28
2023-02-11T06:29:57.760Z,99409.84
2023-02-11T06:32:42.649Z,99378.88
2023-02-11T06:35:12.365Z,99398.50
2023-02-11T06:37:40.270Z,99414.91
2023-02-11T06:40:07.541Z,99415.56
2023-02-11T06:42:36.378Z,99407.69
2023-02-11T06:45:06.211Z,99407.78
2023-02-11T06:47:33.583Z,99411.88
2023-02-11T06:50:00.677Z,99375.84
2023-02-11T06:52:27.702Z,99397.44
2023-02-11T06:54:54.664Z,99391.59
2023-02-11T06:57:21.829Z,99393.50
2023-02-11T06:59:48.910Z,99397.97
2023-02-11T07:02:17.982Z,99384.22
2023-02-11T07:04:46.371Z,99374.59
2023-02-11T07:07:13.319Z,99400.16
2023-02-11T07:09:40.484Z,99400.69
2023-02-11T07:12:10.460Z,99388.47
2023-02-11T07:14:37.913Z,99384.31
2023-02-11T07:17:05.348Z,99367.50
2023-02-11T07:19:32.492Z,99396.66
2023-02-11T07:21:59.490Z,99397.41
2023-02-11T07:24:26.657Z,99396.75
2023-02-11T07:26:54.316Z,99377.34
2023-02-11T07:29:21.490Z,99418.44
2023-02-11T07:31:48.962Z,99355.81
2023-02-11T07:34:16.009Z,99405.28
2023-02-11T07:36:46.109Z,99384.97
2023-02-11T07:39:13.819Z,99409.34
2023-02-11T07:41:40.908Z,99414.28
2023-02-11T07:44:08.136Z,99390.66
2023-02-11T07:46:35.967Z,99404.31
2023-02-11T07:49:03.140Z,99374.19
2023-02-11T07:51:31.688Z,99388.31
2023-02-11T07:54:00.286Z,99352.84
2023-02-11T07:56:28.804Z,99399.75
2023-02-11T07:58:57.086Z,99363.19
2023-02-11T08:01:28.504Z,99354.81
2023-02-11T08:03:57.291Z,99366.81
2023-02-11T08:06:26.898Z,99375.31
2023-02-11T08:08:54.055Z,99371.72
2023-02-11T08:11:24.012Z,99369.38
2023-02-11T08:13:52.121Z,99347.78
2023-02-11T08:16:46.952Z,99352.81
2023-02-11T08:19:16.256Z,99342.69
2023-02-11T08:21:44.109Z,99372.16
2023-02-11T08:24:11.610Z,99346.19
2023-02-11T08:26:38.923Z,99328.81
2023-02-11T08:29:09.761Z,99353.13
2023-02-11T08:31:40.138Z,99364.97
2023-02-11T08:34:07.470Z,99347.03
2023-02-11T08:36:39.854Z,99326.34
2023-02-11T08:39:19.267Z,99355.13
2023-02-11T08:41:53.118Z,99345.47
2023-02-11T08:44:21.641Z,99331.94
2023-02-11T08:46:49.697Z,99305.63
2023-02-11T08:49:17.048Z,99345.72
2023-02-11T08:51:44.685Z,99309.19
2023-02-11T08:54:11.936Z,99316.09
2023-02-11T08:56:39.179Z,99315.94
2023-02-11T08:59:07.338Z,99318.50
2023-02-11T09:01:34.496Z,99305.09
2023-02-11T09:04:01.810Z,99285.94
2023-02-11T09:06:29.458Z,99311.84
2023-02-11T09:08:57.849Z,99291.63
2023-02-11T09:11:34.281Z,99285.22
2023-02-11T09:14:02.255Z,99284.16
2023-02-11T09:16:31.928Z,99240.97
2023-02-11T09:19:00.613Z,99259.69
2023-02-11T09:21:28.515Z,99236.34
2023-02-11T09:23:56.125Z,99264.75
2023-02-11T09:26:28.665Z,99273.66
2023-02-11T09:28:56.004Z,99232.66
2023-02-11T09:31:25.339Z,99231.19
2023-02-11T09:33:55.777Z,99232.50
2023-02-11T09:36:25.660Z,99245.47
2023-02-11T09:38:53.753Z,99168.94
2023-02-11T09:41:23.702Z,99225.78
2023-02-11T09:43:57.584Z,99208.22
2023-02-11T09:46:27.675Z,99167.59
2023-02-11T09:48:56.451Z,99178.31
2023-02-11T09:51:39.996Z,99204.66
2023-02-11T09:54:26.239Z,99202.09
2023-02-11T09:56:53.241Z,99173.69
2023-02-11T09:59:20.505Z,99199.91
2023-02-11T10:01:53.780Z,99194.69
2023-02-11T10:04:33.054Z,99188.78
2023-02-11T10:07:31.545Z,99180.38
2023-02-11T10:10:16.881Z,99200.19
2023-02-11T10:12:46.650Z,99187.31
2023-02-11T10:15:42.738Z,99191.72
2023-02-11T10:18:30.656Z,99149.59
2023-02-11T10:21:17.695Z,99160.75
2023-02-11T10:23:48.921Z,99165.97
2023-02-11T10:26:18.385Z,99108.34
2023-02-11T10:28:52.349Z,99159.41
2023-02-11T10:31:40.477Z,99138.72
2023-02-11T10:34:13.114Z,99142.53
2023-02-11T10:36:43.070Z,99135.78
2023-02-11T10:39:23.208Z,99112.09
2023-02-11T10:42:07.838Z,99105.53
2023-02-11T10:44:41.751Z,99123.00
2023-02-11T10:47:22.580Z,99112.81
2023-02-11T10:49:50.150Z,99130.19
2023-02-11T10:52:26.586Z,99111.44
2023-02-11T10:55:10.291Z,99106.38
2023-02-11T10:58:08.730Z,99104.88
2023-02-11T11:00:41.011Z,99101.75
2023-02-11T11:03:23.225Z,99090.72
2023-02-11T11:05:53.360Z,99063.31
2023-02-11T11:08:21.062Z,99065.56
2023-02-11T11:11:08.022Z,99045.69
2023-02-11T11:13:40.624Z,99052.88
2023-02-11T11:16:13.717Z,99047.84
2023-02-11T11:18:43.933Z,99060.44
2023-02-11T11:21:29.016Z,99032.59
2023-02-11T11:23:58.883Z,99023.03
2023-02-11T11:26:49.109Z,99046.81
2023-02-11T11:29:34.839Z,98999.38
2023-02-11T11:32:24.162Z,99003.97
2023-02-11T11:35:02.779Z,99009.88
2023-02-11T11:37:33.524Z,98969.69
2023-02-11T11:40:15.819Z,98992.91
2023-02-11T11:42:43.336Z,98958.88
2023-02-11T11:45:16.341Z,98950.69
2023-02-11T11:48:14.531Z,98972.00
2023-02-11T11:50:52.560Z,98922.63
2023-02-11T11:53:37.762Z,98986.91
2023-02-11T11:56:11.656Z,98966.03
2023-02-11T11:58:38.994Z,98923.22
2023-02-11T12:01:38.406Z,98993.56
2023-02-11T12:04:20.667Z,98963.13
2023-02-11T12:06:56.988Z,98959.34
2023-02-11T12:09:30.100Z,98947.91
2023-02-11T12:12:15.732Z,98945.47
2023-02-11T12:15:01.041Z,98929.91
2023-02-11T12:18:08.867Z,98917.97
2023-02-11T12:21:13.635Z,98929.81
2023-02-11T12:24:00.429Z,98933.81
2023-02-11T12:26:46.236Z,98917.38
2023-02-11T12:29:25.747Z,98910.81
2023-02-11T12:32:11.584Z,98947.09
2023-02-11T12:34:40.810Z,98940.69
2023-02-11T12:37:08.178Z,98915.03
2023-02-11T12:39:51.131Z,98918.47
2023-02-11T12:42:57.586Z,98924.47
2023-02-11T12:45:46.565Z,98926.75
2023-02-11T12:48:38.648Z,98894.91
2023-02-11T12:51:24.564Z,98916.31
2023-02-11T12:54:33.011Z,98814.53
2023-02-11T12:57:22.185Z,98885.22
2023-02-11T13:00:13.312Z,98868.91
2023-02-11T13:03:06.390Z,98881.59
2023-02-11T13:05:52.378Z,98873.16
2023-02-11T13:08:33.811Z,98866.94
2023-02-11T13:11:22.102Z,98843.75
2023-02-11T13:13:59.207Z,98847.91
2023-02-11T13:16:41.109Z,98846.25
2023-02-11T13:19:39.086Z,98794.63
2023-02-11T13:22:21.264Z,98821.25
2023-02-11T13:25:07.856Z,98769.38
2023-02-11T13:27:59.147Z,98817.25
2023-02-11T13:30:33.535Z,98801.72
2023-02-11T13:33:03.534Z,98788.84
2023-02-11T13:35:32.534Z,98788.78
2023-02-11T13:38:01.509Z,98775.00
2023-02-11T13:40:39.889Z,98784.38
2023-02-11T13:46:30.720Z,98767.22
2023-02-11T13:48:58.387Z,98720.72
2023-02-11T13:51:35.588Z,98759.50
2023-02-11T13:54:04.239Z,98739.50
2023-02-11T13:56:36.233Z,98748.59
2023-02-11T13:59:06.268Z,98728.19
2023-02-11T14:02:14.274Z,98720.47
2023-02-11T14:05:21.690Z,98714.50
2023-02-11T14:08:28.512Z,98723.03
2023-02-11T14:11:08.523Z,98688.47
2023-02-11T14:13:47.777Z,98688.81
2023-02-11T14:16:22.566Z,98673.19
2023-02-11T14:18:55.615Z,98670.78
2023-02-11T14:21:32.426Z,98665.75
2023-02-11T14:24:02.210Z,98659.66
2023-02-11T14:26:44.301Z,98663.81
2023-02-11T14:29:33.712Z,98613.41
2023-02-11T14:32:25.464Z,98645.81
2023-02-11T14:35:07.654Z,98639.03
2023-02-11T14:37:56.246Z,98635.50
2023-02-11T14:40:32.191Z,98633.75
2023-02-11T14:43:17.444Z,98636.28
2023-02-11T14:45:50.388Z,98592.66
2023-02-11T14:48:20.000Z,98579.91
2023-02-11T14:50:52.242Z,98629.25
2023-02-11T14:53:24.022Z,98605.28
2023-02-11T14:55:53.968Z,98615.53
2023-02-11T14:58:23.950Z,98597.56
2023-02-11T15:00:57.787Z,98550.41
2023-02-11T15:03:34.326Z,98597.78
2023-02-11T15:06:20.937Z,98578.91
2023-02-11T15:09:16.993Z,98542.19
2023-02-11T15:11:48.526Z,98582.47
2023-02-11T15:14:24.413Z,98544.69
2023-02-11T15:16:54.244Z,98545.41
2023-02-11T15:19:37.091Z,98543.25
2023-02-11T15:22:20.405Z,98530.06
2023-02-11T15:25:10.550Z,98538.28
2023-02-11T15:27:49.586Z,98519.31
2023-02-11T15:30:22.862Z,98524.38
2023-02-11T15:32:50.988Z,98502.19
2023-02-11T15:35:20.728Z,98505.59
2023-02-11T15:37:50.573Z,98509.81
2023-02-11T15:40:25.495Z,98485.81
2023-02-11T15:42:58.639Z,98488.41
2023-02-11T15:45:38.023Z,98475.31
2023-02-11T15:48:20.390Z,98426.28
2023-02-11T15:50:53.871Z,98481.44
2023-02-11T15:53:37.352Z,98476.34
2023-02-11T15:56:26.805Z,98448.94
2023-02-11T15:58:56.175Z,98478.91
2023-02-11T16:01:49.761Z,98477.94
2023-02-11T16:04:20.474Z,98468.47
2023-02-11T16:06:48.485Z,98462.38
2023-02-11T16:09:15.456Z,98458.88
2023-02-11T16:11:48.871Z,98455.59
2023-02-11T16:14:31.840Z,98446.91
2023-02-11T16:17:42.859Z,98449.59
2023-02-11T16:20:21.428Z,98433.19
2023-02-11T16:22:48.672Z,98387.66
2023-02-11T16:25:20.972Z,98396.34
2023-02-11T16:27:51.970Z,98384.06
2023-02-11T16:30:36.576Z,98358.78
2023-02-11T16:33:06.615Z,98378.19
2023-02-11T16:35:34.772Z,98404.63
2023-02-11T16:38:01.934Z,98380.88
2023-02-11T16:40:33.405Z,98382.78
2023-02-11T16:43:11.222Z,98407.28
2023-02-11T16:45:51.284Z,98263.88
2023-02-11T16:48:27.015Z,98396.78
2023-02-11T16:51:29.734Z,98414.03
2023-02-11T16:54:15.372Z,98304.88
2023-02-11T16:57:09.421Z,98217.84
2023-02-11T16:59:56.356Z,98301.31
2023-02-11T17:02:36.142Z,98315.88
2023-02-11T17:05:08.056Z,98346.72
2023-02-11T17:07:35.724Z,98315.50
2023-02-11T17:10:02.849Z,98359.06
2023-02-11T17:12:30.825Z,98378.97
2023-02-11T17:14:57.881Z,98360.91
2023-02-11T17:17:24.864Z,98328.81
2023-02-11T17:19:52.033Z,98303.66
2023-02-11T17:22:19.170Z,98338.34
2023-02-11T17:24:46.281Z,98323.25
2023-02-11T17:27:13.542Z,98302.34
2023-02-11T17:29:40.854Z,98285.22
2023-02-11T17:32:08.049Z,98293.97
2023-02-11T17:34:35.253Z,98274.63
2023-02-11T17:37:09.082Z,98272.22
2023-02-11T17:39:40.249Z,98287.25
2023-02-11T17:42:08.884Z,98283.06
2023-02-11T17:44:36.004Z,98274.38
2023-02-11T17:47:03.671Z,98279.06
2023-02-11T17:49:30.684Z,98278.03
2023-02-11T17:51:58.048Z,98240.06
2023-02-11T17:54:25.210Z,98266.94
2023-02-11T17:56:55.800Z,98286.63
2023-02-11T17:59:26.074Z,98223.19
2023-02-11T18:01:53.264Z,98250.41
2023-02-11T18:04:20.780Z,98246.25
2023-02-11T18:06:48.724Z,98190.41
2023-02-11T18:09:15.799Z,98224.84
2023-02-11T18:11:43.029Z,98188.94
2023-02-11T18:14:10.596Z,98226.66
2023-02-11T18:16:40.079Z,98135.84
2023-02-11T18:19:07.856Z,98199.84
2023-02-11T18:21:35.409Z,98179.91
2023-02-11T18:24:06.432Z,98197.47
2023-02-11T18:26:34.990Z,98198.34
2023-02-11T18:29:06.397Z,98207.88
2023-02-11T18:31:35.541Z,98188.63
2023-02-11T18:34:05.720Z,98174.38
2023-02-11T18:36:35.555Z,98145.00
2023-02-11T18:39:05.200Z,98130.31
2023-02-11T18:41:32.526Z,98157.91
2023-02-11T18:44:03.048Z,98142.56
2023-02-11T18:46:31.526Z,98166.66
2023-02-11T18:48:58.948Z,98115.59
2023-02-11T18:51:26.615Z,98165.00
2023-02-11T18:53:59.594Z,98138.50
2023-02-11T18:56:30.065Z,98090.28
2023-02-11T18:58:58.817Z,98145.31
2023-02-11T19:01:27.638Z,98124.81
2023-02-11T19:04:00.677Z,98128.34
2023-02-11T19:06:30.235Z,98152.41
2023-02-11T19:09:00.244Z,98138.69
2023-02-11T19:11:49.181Z,98124.91
2023-02-11T19:14:22.369Z,98064.06
2023-02-11T19:16:51.416Z,98124.16
2023-02-11T19:19:19.423Z,98055.75
2023-02-11T19:21:47.689Z,98101.66
2023-02-11T19:24:18.983Z,98087.19
2023-02-11T19:26:47.517Z,98055.66
2023-02-11T19:29:14.819Z,98092.34
2023-02-11T19:31:42.336Z,98067.13
2023-02-11T19:34:11.770Z,98088.22
2023-02-11T19:36:38.921Z,98080.19
2023-02-11T19:39:06.274Z,98073.53
2023-02-11T19:41:34.860Z,98064.69
2023-02-11T19:44:02.779Z,98061.25
2023-02-11T19:46:33.117Z,98047.47
2023-02-11T19:49:01.197Z,98036.06
2023-02-11T19:51:29.129Z,98058.59
2023-02-11T19:53:56.386Z,98056.19
2023-02-11T19:56:23.527Z,98025.69
2023-02-11T19:58:50.676Z,98017.22
2023-02-11T20:01:20.076Z,98051.03
2023-02-11T20:03:52.938Z,98020.44
2023-02-11T20:06:23.567Z,98042.53
2023-02-11T20:08:58.220Z,97998.84
2023-02-11T20:11:27.142Z,98020.91
2023-02-11T20:13:54.772Z,97983.38
2023-02-11T20:16:33.962Z,98017.38
2023-02-11T20:19:16.971Z,97980.94
2023-02-11T20:21:46.801Z,98002.69
2023-02-11T20:24:15.053Z,98009.84
2023-02-11T20:26:42.631Z,97961.13
2023-02-11T20:29:09.864Z,97966.38
2023-02-11T20:31:37.711Z,97988.94
2023-02-11T20:34:04.963Z,97982.09
2023-02-11T20:36:35.711Z,97951.56
2023-02-11T20:39:05.015Z,97989.16
2023-02-11T20:41:36.673Z,97954.34
2023-02-11T20:44:07.342Z,97971.53
2023-02-11T20:46:37.677Z,97986.66
2023-02-11T20:49:06.079Z,97942.16
2023-02-11T20:51:36.526Z,97956.06
2023-02-11T20:54:06.172Z,97978.06
2023-02-11T20:56:36.685Z,97846.44
2023-02-11T20:59:04.158Z,97975.50
2023-02-11T21:01:37.874Z,97966.09
2023-02-11T21:04:07.876Z,97974.63
2023-02-11T21:06:38.546Z,97936.44
2023-02-11T21:09:07.122Z,97971.13
2023-02-11T21:11:34.895Z,97954.81
2023-02-11T21:14:02.537Z,97930.34
2023-02-11T21:16:29.801Z,97930.47
2023-02-11T21:18:58.389Z,97990.16
2023-02-11T21:21:25.517Z,97959.03
2023-02-11T21:23:52.682Z,97960.00
2023-02-11T21:26:22.851Z,97905.88
2023-02-11T21:29:04.819Z,97918.25
2023-02-11T21:31:46.115Z,97776.44
2023-02-11T21:34:48.832Z,97777.34
2023-02-11T21:37:23.322Z,97949.69
2023-02-11T21:39:50.644Z,97909.75
2023-02-11T21:42:17.882Z,97906.88
2023-02-11T21:44:45.078Z,97907.88
2023-02-11T21:47:12.057Z,97931.44
2023-02-11T21:49:39.241Z,97914.06
2023-02-11T21:52:06.375Z,97929.09
2023-02-11T21:54:56.722Z,97883.63
2023-02-11T21:57:44.936Z,97774.94
2023-02-11T22:00:53.852Z,97759.34
2023-02-11T22:03:54.873Z,97800.28
2023-02-11T22:06:42.844Z,97763.78
2023-02-11T22:12:31.321Z,97834.09
2023-02-11T22:15:38.502Z,97778.44
2023-02-11T22:18:25.491Z,97842.25
2023-02-11T22:21:31.863Z,97745.66
2023-02-11T22:24:37.445Z,97837.97
2023-02-11T22:27:44.411Z,97741.28
2023-02-11T22:30:38.731Z,97753.41
2023-02-11T22:33:29.380Z,97833.34
2023-02-11T22:36:21.021Z,97774.31
2023-02-11T22:39:46.799Z,97745.75
2023-02-11T22:42:35.021Z,97846.56
2023-02-11T22:46:07.816Z,97904.19
2023-02-11T22:49:01.043Z,97803.13
2023-02-11T22:51:48.134Z,97772.69
2023-02-11T22:54:28.635Z,97832.72
2023-02-11T22:56:55.715Z,97817.13
2023-02-11T22:59:23.171Z,97808.28
2023-02-11T23:02:07.086Z,97844.03
2023-02-11T23:08:14.161Z,97762.31
2023-02-11T23:11:18.396Z,97863.28
2023-02-11T23:14:17.939Z,97783.19
2023-02-11T23:17:05.076Z,97899.81
2023-02-11T23:19:32.249Z,97930.31
2023-02-11T23:21:59.291Z,97933.81
2023-02-11T23:24:35.311Z,97905.06
2023-02-11T23:27:05.880Z,97927.75
2023-02-11T23:29:47.467Z,97851.97
2023-02-11T23:32:42.620Z,97758.88
2023-02-11T23:38:33.156Z,97852.88
2023-02-11T23:41:26.752Z,97758.97
2023-02-11T23:44:29.924Z,97931.38
2023-02-11T23:47:27.091Z,97811.22
2023-02-11T23:51:08.002Z,97774.63
2023-02-11T23:54:12.050Z,97767.72
2023-02-11T23:57:03.844Z,97811.25
2023-02-11T23:59:55.587Z,97841.72
